createdAt,value
2022-10-13T00:01:06.343Z,89
2022-10-13T00:04:31.516Z,90
2022-10-13T00:07:56.692Z,90
2022-10-13T00:11:21.883Z,90
2022-10-13T00:14:47.008Z,90
2022-10-13T00:18:12.195Z,90
2022-10-13T00:21:37.349Z,91
2022-10-13T00:25:02.528Z,90
2022-10-13T00:28:27.751Z,90
2022-10-13T00:31:52.848Z,90
2022-10-13T00:35:18.016Z,91
2022-10-13T00:38:43.182Z,90
2022-10-13T00:42:08.360Z,89
2022-10-13T00:45:33.569Z,89
2022-10-13T00:48:58.707Z,88
2022-10-13T00:52:23.890Z,87
2022-10-13T00:55:49.067Z,86
2022-10-13T00:59:14.244Z,86
2022-10-13T01:02:39.446Z,85
2022-10-13T01:06:04.584Z,85
2022-10-13T01:09:29.733Z,85
2022-10-13T01:12:54.884Z,85
2022-10-13T01:16:20.022Z,86
2022-10-13T01:19:45.203Z,85
2022-10-13T01:23:10.335Z,86
2022-10-13T01:26:35.521Z,86
2022-10-13T01:30:00.687Z,87
2022-10-13T01:33:25.857Z,88
2022-10-13T01:36:51.050Z,89
2022-10-13T01:40:16.206Z,89
2022-10-13T01:43:41.392Z,88
2022-10-13T01:47:06.532Z,89
2022-10-13T01:50:31.723Z,90
2022-10-13T01:53:56.917Z,90
2022-10-13T01:57:22.069Z,90
2022-10-13T02:00:47.255Z,90
2022-10-13T02:04:12.371Z,90
2022-10-13T02:07:37.536Z,90
2022-10-13T02:11:02.721Z,90
2022-10-13T02:14:27.891Z,89
2022-10-13T02:17:53.059Z,88
2022-10-13T02:21:18.243Z,88
2022-10-13T02:24:43.419Z,87
2022-10-13T02:28:08.659Z,88
2022-10-13T02:31:33.752Z,88
2022-10-13T02:34:58.925Z,89
2022-10-13T02:38:24.074Z,89
2022-10-13T02:41:49.216Z,89
2022-10-13T02:45:14.383Z,89
2022-10-13T02:48:39.505Z,90
2022-10-13T02:52:04.686Z,90
2022-10-13T02:55:29.843Z,90
2022-10-13T02:58:55.025Z,90
2022-10-13T03:02:20.341Z,90
2022-10-13T03:05:45.344Z,90
2022-10-13T03:09:10.514Z,90
2022-10-13T03:12:35.702Z,90
2022-10-13T03:16:00.877Z,90
2022-10-13T03:19:26.076Z,90
2022-10-13T03:22:51.210Z,90
2022-10-13T03:26:16.396Z,91
2022-10-13T03:29:41.571Z,91
2022-10-13T03:33:06.752Z,91
2022-10-13T03:36:31.955Z,91
2022-10-13T03:39:57.122Z,91
2022-10-13T03:43:22.294Z,91
2022-10-13T03:46:47.458Z,91
2022-10-13T03:50:12.616Z,91
2022-10-13T03:53:37.808Z,90
2022-10-13T03:57:02.936Z,90
2022-10-13T04:00:28.095Z,91
2022-10-13T04:03:53.255Z,91
2022-10-13T04:07:18.416Z,91
2022-10-13T04:10:43.592Z,91
2022-10-13T04:14:08.727Z,91
2022-10-13T04:17:33.882Z,91
2022-10-13T04:20:59.044Z,92
2022-10-13T04:24:24.207Z,92
2022-10-13T04:27:49.397Z,92
2022-10-13T04:31:14.568Z,92
2022-10-13T04:34:39.724Z,92
2022-10-13T04:38:04.916Z,92
2022-10-13T04:41:30.095Z,92
2022-10-13T04:44:55.350Z,91
2022-10-13T04:48:20.439Z,91
2022-10-13T04:51:45.602Z,91
2022-10-13T04:55:10.784Z,91
2022-10-13T04:58:35.974Z,91
2022-10-13T05:02:01.228Z,91
2022-10-13T05:05:26.441Z,91
2022-10-13T05:08:51.635Z,91
2022-10-13T05:12:16.967Z,91
2022-10-13T05:15:41.989Z,91
2022-10-13T05:19:07.232Z,91
2022-10-13T05:22:32.333Z,92
2022-10-13T05:25:57.498Z,91
2022-10-13T05:29:22.663Z,92
2022-10-13T05:32:51.539Z,92
2022-10-13T05:36:12.996Z,92
2022-10-13T05:39:38.161Z,92
2022-10-13T05:43:03.353Z,92
2022-10-13T05:46:28.541Z,92
2022-10-13T05:49:53.767Z,92
2022-10-13T05:53:18.939Z,92
2022-10-13T05:56:44.104Z,92
2022-10-13T06:00:09.268Z,92
2022-10-13T06:03:34.449Z,92
2022-10-13T06:06:59.639Z,92
2022-10-13T06:10:24.859Z,93
2022-10-13T06:13:50.025Z,93
2022-10-13T06:17:15.244Z,93
2022-10-13T06:20:40.420Z,93
2022-10-13T06:24:05.661Z,93
2022-10-13T06:27:31.007Z,92
2022-10-13T06:30:56.074Z,93
2022-10-13T06:34:21.279Z,92
2022-10-13T06:37:46.538Z,92
2022-10-13T06:41:11.771Z,92
2022-10-13T06:44:37.028Z,92
2022-10-13T06:48:02.243Z,92
2022-10-13T06:51:27.457Z,92
2022-10-13T06:54:52.674Z,92
2022-10-13T06:58:17.891Z,92
2022-10-13T07:01:43.144Z,92
2022-10-13T07:05:08.334Z,92
2022-10-13T07:08:33.544Z,92
2022-10-13T07:11:58.742Z,92
2022-10-13T07:15:23.932Z,92
2022-10-13T07:18:49.188Z,92
2022-10-13T07:22:14.372Z,92
2022-10-13T07:25:39.587Z,92
2022-10-13T07:29:04.789Z,92
2022-10-13T07:32:29.980Z,91
2022-10-13T07:35:55.205Z,91
2022-10-13T07:39:20.391Z,92
2022-10-13T07:42:45.603Z,92
2022-10-13T07:46:10.825Z,92
2022-10-13T07:49:36.038Z,92
2022-10-13T07:53:01.297Z,92
2022-10-13T07:56:26.491Z,91
2022-10-13T07:59:51.703Z,92
2022-10-13T08:03:16.906Z,92
2022-10-13T08:06:42.179Z,92
2022-10-13T08:10:07.394Z,92
2022-10-13T08:13:32.581Z,92
2022-10-13T08:16:57.814Z,92
2022-10-13T08:20:23.414Z,92
2022-10-13T08:23:48.219Z,92
2022-10-13T08:27:13.459Z,92
2022-10-13T08:30:38.706Z,92
2022-10-13T08:34:03.861Z,92
2022-10-13T08:37:29.064Z,91
2022-10-13T08:40:54.278Z,91
2022-10-13T08:45:06.164Z,91
2022-10-13T08:47:44.685Z,91
2022-10-13T08:51:09.893Z,92
2022-10-13T08:54:35.070Z,92
2022-10-13T08:58:00.285Z,92
2022-10-13T09:01:25.610Z,92
2022-10-13T09:04:50.704Z,92
2022-10-13T09:08:15.907Z,92
2022-10-13T09:11:41.127Z,92
2022-10-13T09:15:06.355Z,92
2022-10-13T09:18:31.603Z,92
2022-10-13T09:21:56.773Z,93
2022-10-13T09:25:22.003Z,93
2022-10-13T09:28:47.275Z,93
2022-10-13T09:32:12.441Z,93
2022-10-13T09:35:37.656Z,93
2022-10-13T09:39:02.831Z,93
2022-10-13T09:42:28.049Z,93
2022-10-13T09:45:53.236Z,93
2022-10-13T09:49:18.423Z,93
2022-10-13T09:52:43.669Z,94
2022-10-13T09:56:08.844Z,94
2022-10-13T09:59:34.045Z,93
2022-10-13T10:02:59.271Z,93
2022-10-13T10:06:26.852Z,93
2022-10-13T10:09:49.713Z,93
2022-10-13T10:13:14.911Z,93
2022-10-13T10:16:40.136Z,92
2022-10-13T10:20:05.365Z,92
2022-10-13T10:23:30.610Z,91
2022-10-13T10:26:55.856Z,92
2022-10-13T10:30:21.056Z,92
2022-10-13T10:33:46.221Z,92
2022-10-13T10:37:11.424Z,92
2022-10-13T10:40:36.635Z,92
2022-10-13T10:44:01.893Z,92
2022-10-13T10:47:27.206Z,91
2022-10-13T10:50:52.289Z,90
2022-10-13T10:54:17.485Z,90
2022-10-13T10:57:42.655Z,90
2022-10-13T11:01:08.158Z,88
2022-10-13T11:04:33.064Z,88
2022-10-13T11:07:58.278Z,88
2022-10-13T11:11:25.016Z,86
2022-10-13T11:14:48.618Z,85
2022-10-13T11:18:15.663Z,85
2022-10-13T11:21:38.955Z,83
2022-10-13T11:25:04.169Z,83
2022-10-13T11:28:29.453Z,82
2022-10-13T11:31:54.559Z,82
2022-10-13T11:35:19.757Z,81
2022-10-13T11:38:44.940Z,81
2022-10-13T11:42:10.119Z,81
2022-10-13T11:45:35.494Z,79
2022-10-13T11:49:00.674Z,79
2022-10-13T11:52:26.055Z,79
2022-10-13T11:55:51.272Z,79
2022-10-13T11:59:16.446Z,79
2022-10-13T12:02:41.726Z,80
2022-10-13T12:06:06.862Z,80
2022-10-13T12:09:32.091Z,81
2022-10-13T12:12:57.267Z,80
2022-10-13T12:16:22.477Z,81
2022-10-13T12:19:47.796Z,81
2022-10-13T12:23:13.001Z,82
2022-10-13T12:26:38.350Z,80
2022-10-13T12:30:03.377Z,80
2022-10-13T12:33:28.566Z,80
2022-10-13T12:40:19.030Z,81
2022-10-13T12:43:44.232Z,81
2022-10-13T12:47:09.486Z,81
2022-10-13T12:50:34.708Z,82
2022-10-13T12:53:59.903Z,80
2022-10-13T12:57:25.085Z,81
2022-10-13T13:00:50.394Z,81
2022-10-13T13:04:15.488Z,80
2022-10-13T13:07:40.693Z,81
2022-10-13T13:11:06.884Z,81
2022-10-13T13:14:32.109Z,80
2022-10-13T13:17:58.551Z,79
2022-10-13T13:21:22.499Z,80
2022-10-13T13:24:47.702Z,79
2022-10-13T13:28:12.933Z,80
2022-10-13T13:31:38.153Z,80
2022-10-13T13:35:03.416Z,80
2022-10-13T13:38:28.576Z,79
2022-10-13T13:41:53.780Z,79
2022-10-13T13:45:18.994Z,80
2022-10-13T13:48:44.237Z,80
2022-10-13T13:52:09.444Z,79
2022-10-13T13:55:34.624Z,78
2022-10-13T13:58:59.818Z,78
2022-10-13T14:02:25.017Z,78
2022-10-13T14:05:50.236Z,78
2022-10-13T14:09:15.470Z,78
2022-10-13T14:12:40.641Z,79
2022-10-13T14:16:05.862Z,80
2022-10-13T14:19:31.068Z,79
2022-10-13T14:22:56.292Z,79
2022-10-13T14:26:21.567Z,78
2022-10-13T14:29:46.717Z,78
2022-10-13T15:05:08.333Z,81
2022-10-13T15:08:33.567Z,82
2022-10-13T15:11:58.836Z,82
2022-10-13T15:15:24.133Z,83
2022-10-13T15:18:49.364Z,83
2022-10-13T15:22:15.737Z,83
2022-10-13T15:25:40.920Z,83
2022-10-13T15:29:06.087Z,84
2022-10-13T15:32:31.286Z,84
2022-10-13T15:35:56.446Z,84
2022-10-13T15:39:21.665Z,84
2022-10-13T15:42:46.877Z,84
2022-10-13T15:46:12.078Z,85
2022-10-13T15:49:37.270Z,85
2022-10-13T15:53:02.459Z,85
2022-10-13T15:56:27.619Z,85
2022-10-13T15:59:52.826Z,85
2022-10-13T16:03:18.052Z,85
2022-10-13T16:06:43.259Z,85
2022-10-13T16:10:08.501Z,85
2022-10-13T16:13:33.716Z,85
2022-10-13T16:17:01.831Z,85
2022-10-13T16:20:26.981Z,86
2022-10-13T16:23:52.158Z,86
2022-10-13T16:27:17.514Z,86
2022-10-13T16:30:42.697Z,85
2022-10-13T16:34:07.845Z,86
2022-10-13T16:37:33.047Z,86
2022-10-13T16:40:58.294Z,86
2022-10-13T16:44:25.143Z,86
2022-10-13T16:47:50.305Z,87
2022-10-13T16:51:15.419Z,87
2022-10-13T16:54:40.598Z,87
2022-10-13T16:58:05.755Z,87
2022-10-13T17:01:30.950Z,87
2022-10-13T17:04:56.162Z,87
2022-10-13T17:08:21.291Z,86
2022-10-13T17:11:46.435Z,86
2022-10-13T17:15:11.628Z,86
2022-10-13T17:18:36.781Z,87
2022-10-13T17:22:01.983Z,87
2022-10-13T17:25:27.190Z,87
2022-10-13T17:28:52.403Z,87
2022-10-13T17:32:17.498Z,87
2022-10-13T17:35:42.658Z,87
2022-10-13T17:39:07.887Z,87
2022-10-13T17:42:33.176Z,87
2022-10-13T17:46:12.239Z,86
2022-10-13T17:49:23.495Z,87
2022-10-13T17:52:48.706Z,87
2022-10-13T17:56:13.907Z,87
2022-10-13T17:59:39.043Z,87
2022-10-13T18:03:04.209Z,87
2022-10-13T18:06:32.692Z,87
2022-10-13T18:09:54.557Z,87
2022-10-13T18:13:19.760Z,87
2022-10-13T18:16:44.888Z,87
2022-10-13T18:20:10.069Z,87
2022-10-13T18:23:35.304Z,87
2022-10-13T18:27:00.451Z,87
2022-10-13T18:30:25.625Z,88
2022-10-13T18:33:50.796Z,88
2022-10-13T18:37:16.004Z,88
2022-10-13T18:40:41.179Z,88
2022-10-13T18:44:06.362Z,88
2022-10-13T18:47:31.565Z,88
2022-10-13T18:50:56.711Z,88
2022-10-13T18:54:21.857Z,88
2022-10-13T18:57:47.077Z,88
2022-10-13T19:01:12.346Z,88
2022-10-13T19:04:37.418Z,88
2022-10-13T19:08:02.559Z,89
2022-10-13T19:11:27.708Z,89
2022-10-13T19:14:52.872Z,89
2022-10-13T19:18:18.023Z,89
2022-10-13T19:21:43.192Z,89
2022-10-13T19:25:08.370Z,89
2022-10-13T19:28:33.557Z,89
2022-10-13T19:31:58.690Z,89
2022-10-13T19:35:23.914Z,89
2022-10-13T19:38:49.140Z,89
2022-10-13T19:42:14.316Z,89
2022-10-13T19:45:39.526Z,89
2022-10-13T19:49:04.812Z,89
2022-10-13T19:52:30.019Z,89
2022-10-13T19:55:55.209Z,90
2022-10-13T19:59:20.331Z,90
2022-10-13T20:02:45.482Z,90
2022-10-13T20:06:10.659Z,89
2022-10-13T20:09:35.813Z,90
2022-10-13T20:13:00.989Z,90
2022-10-13T20:16:26.105Z,90
2022-10-13T20:19:51.258Z,90
2022-10-13T20:23:16.745Z,90
2022-10-13T20:26:41.921Z,90
2022-10-13T20:30:07.124Z,90
2022-10-13T20:33:32.256Z,91
2022-10-13T20:36:57.395Z,91
2022-10-13T20:40:22.560Z,90
2022-10-13T20:43:47.725Z,90
2022-10-13T20:47:12.904Z,91
2022-10-13T20:50:38.090Z,90
2022-10-13T20:54:03.238Z,90
2022-10-13T20:57:28.405Z,90
2022-10-13T21:00:53.622Z,90
2022-10-13T21:04:18.818Z,90
2022-10-13T21:07:44.032Z,90
2022-10-13T21:11:09.172Z,90
2022-10-13T21:14:34.323Z,91
2022-10-13T21:17:59.482Z,91
2022-10-13T21:21:24.761Z,91
2022-10-13T21:24:49.884Z,91
2022-10-13T21:28:15.068Z,91
2022-10-13T21:31:40.189Z,90
2022-10-13T21:35:05.377Z,90
2022-10-13T21:38:30.601Z,90
2022-10-13T21:41:55.714Z,90
2022-10-13T21:45:20.923Z,90
2022-10-13T21:48:46.085Z,90
2022-10-13T21:52:11.251Z,90
2022-10-13T21:55:36.497Z,90
2022-10-13T21:59:01.629Z,90
2022-10-13T22:02:26.781Z,90
2022-10-13T22:05:51.938Z,90
2022-10-13T22:09:17.142Z,90
2022-10-13T22:12:42.352Z,90
2022-10-13T22:16:07.498Z,90
2022-10-13T22:19:32.669Z,90
2022-10-13T22:22:57.855Z,90
2022-10-13T22:26:23.006Z,90
2022-10-13T22:29:48.233Z,90
2022-10-13T22:33:13.366Z,90
2022-10-13T22:36:42.318Z,90
2022-10-13T22:40:03.729Z,90
2022-10-13T22:43:28.878Z,90
2022-10-13T22:46:54.061Z,90
2022-10-13T22:50:19.263Z,90
2022-10-13T22:53:44.418Z,90
2022-10-13T22:57:09.558Z,90
2022-10-13T23:00:34.717Z,90
2022-10-13T23:04:00.018Z,91
2022-10-13T23:07:25.151Z,90
2022-10-13T23:10:50.329Z,90
2022-10-13T23:14:15.487Z,90
2022-10-13T23:17:40.683Z,90
2022-10-13T23:21:05.902Z,90
2022-10-13T23:24:31.029Z,90
2022-10-13T23:27:56.226Z,90
2022-10-13T23:31:21.375Z,90
2022-10-13T23:34:46.504Z,90
2022-10-13T23:38:11.724Z,90
2022-10-13T23:41:36.866Z,90
2022-10-13T23:45:02.000Z,90
2022-10-13T23:48:27.160Z,91
2022-10-13T23:51:52.389Z,91
2022-10-13T23:55:17.607Z,91
2022-10-13T23:58:42.799Z,91
